Pagrindinis puslapis
METAR-TAF:

METAR-TAF

Oro uostai :

Yüksekova, Turkija

platuma: 37-33-06N, ilguma: 44-14-01E, Aukštis: 1950 m

Dabartinis oras

Ataskaita buvo paskelbta 7 valandos ir 44 minutes, ne 10:50 UTC
Vėjas 9 kt iš Pietų, svyruoja nuo Rytų/Pietryčių ir Pietų/Pietvakarių
Temperatūra 27°C
Drėgmė 21%
Slėgis 1021 hPa
Matomumas 10 km arba daugiau
Mažai debesys ne aukštis 4000 ft

METAR: LTCW 151050Z 17009KT 110V210 9999 FEW040 27/03 Q1021

Laikas: 21:34 (18:34 UTC)

Prognozė

Ataskaita buvo paskelbta 1 valandą ir 54 minutes, ne 16:40 UTC
Prognozė galioja nuo 15 metu 18 UTC su 16 metu 03 UTC
Vėjas 9 kt iš Pietų/Pietvakarių
Matomumas 10 km arba daugiau
Išsisklaidę debesys ne aukštis 3500 ft
Tapsmas
nuo 15 metu 21 UTC su 15 metu 22 UTC
Vėjas 10 kt iš Šiaurės Rytų

TAF: LTCW 151640Z 1518/1603 20009KT 9999 SCT035 BECMG 1521/1522 05010KT

Orai ataskaitas ir orų prognozės (METAR, TAF).

turimą stotys yra geltonos ir raudonos taškus žemėlapyje.

Perkelti pele per norėdami pamatyti stoties vardą.

Tada spustelėkite, norėdami matyti oro stebėjimo ir prognozės.

Norėdami pakeisti žemėlapį: spustelėkite ant žalios mygtukų su juodo kryžiaus žemyn,; žalią mygtuką su brūkšneliu, jei norite nutolinti; arba žalių rodyklių gretimoms žemėlapius.


METAR-TAF: